Observation data for Wolfforth on 05/26/2019      Previous  Date  Next       Current Mesonet Observations  Soil Data  Daily Summary Page  Observations in Plain Language
KWOS 260500Z 17008KT 21/17 A2996 RMK A01 T02070174  RH  086%=      5-min Rain = 0
KWOS 260505Z 17008KT 21/17 A2996 RMK A01 T02050173  RH  086%=      5-min Rain = 0
KWOS 260510Z 17008KT 20/17 A2996 RMK A01 T02040173  RH  087%=      5-min Rain = 0
KWOS 260515Z 17008KT 20/17 A2996 RMK A01 T02030173  RH  087%=      5-min Rain = 0
KWOS 260520Z 17009KT 20/17 A2996 RMK A01 T02030173  RH  087%=      5-min Rain = 0
KWOS 260525Z 18009KT 21/17 A2996 RMK A01 T02050172  RH  086%=      5-min Rain = 0
KWOS 260530Z 18009KT 20/17 A2996 RMK A01 T02040172  RH  086%=      5-min Rain = 0
KWOS 260535Z 18009KT 20/17 A2997 RMK A01 T02030172  RH  087%=      5-min Rain = 0
KWOS 260540Z 18009KT 20/17 A2997 RMK A01 T02020172  RH  087%=      5-min Rain = 0
KWOS 260545Z 18009KT 20/17 A2997 RMK A01 T02010172  RH  087%=      5-min Rain = 0
KWOS 260550Z 18008KT 20/17 A2997 RMK A01 T02000172  RH  088%=      5-min Rain = 0
KWOS 260555Z 17007KT 20/17 A2997 RMK A01 T01990171  RH  088%=      5-min Rain = 0
KWOS 260600Z 17007KT 20/17 A2996 RMK A01 T01970171  RH  089%=      5-min Rain = 0
KWOS 260605Z 17006KT 20/17 A2997 RMK A01 T01960170  RH  090%=      5-min Rain = 0
KWOS 260610Z 17006KT 20/17 A2997 RMK A01 T01950170  RH  090%=      5-min Rain = 0
KWOS 260615Z 17006KT 19/17 A2997 RMK A01 T01930170  RH  091%=      5-min Rain = 0
KWOS 260620Z 16006KT 19/17 A2997 RMK A01 T01930170  RH  091%=      5-min Rain = 0
KWOS 260625Z 16006KT 19/17 A2997 RMK A01 T01920170  RH  091%=      5-min Rain = 0
KWOS 260630Z 17006KT 19/17 A2996 RMK A01 T01910170  RH  092%=      5-min Rain = 0
KWOS 260635Z 17006KT 19/17 A2996 RMK A01 T01910170  RH  092%=      5-min Rain = 0
KWOS 260640Z 17006KT 19/17 A2996 RMK A01 T01910170  RH  092%=      5-min Rain = 0
KWOS 260645Z 18006KT 19/17 A2996 RMK A01 T01910170  RH  092%=      5-min Rain = 0
KWOS 260650Z 17006KT 19/17 A2996 RMK A01 T01890169  RH  093%=      5-min Rain = 0
KWOS 260655Z 17006KT 19/17 A2996 RMK A01 T01880169  RH  093%=      5-min Rain = 0
KWOS 260700Z 17006KT 19/17 A2996 RMK A01 T01890169  RH  093%=      5-min Rain = 0
KWOS 260705Z 17007KT 19/17 A2996 RMK A01 T01900170  RH  093%=      5-min Rain = 0
KWOS 260710Z 17006KT 19/17 A2996 RMK A01 T01890169  RH  093%=      5-min Rain = 0
KWOS 260715Z 17006KT 19/17 A2996 RMK A01 T01880169  RH  093%=      5-min Rain = 0
KWOS 260720Z 17005KT 19/17 A2996 RMK A01 T01860168  RH  093%=      5-min Rain = 0
KWOS 260725Z 16005KT 19/17 A2996 RMK A01 T01850167  RH  094%=      5-min Rain = 0
KWOS 260730Z 15006KT 19/17 A2996 RMK A01 T01850168  RH  094%=      5-min Rain = 0
KWOS 260735Z 16006KT 19/17 A2996 RMK A01 T01860168  RH  094%=      5-min Rain = 0
KWOS 260740Z 16006KT 19/17 A2996 RMK A01 T01870168  RH  094%=      5-min Rain = 0
KWOS 260745Z 15005KT 19/17 A2996 RMK A01 T01860168  RH  094%=      5-min Rain = 0
KWOS 260750Z 15005KT 18/17 A2996 RMK A01 T01830165  RH  094%=      5-min Rain = 0
KWOS 260755Z 14005KT 18/16 A2996 RMK A01 T01790163  RH  095%=      5-min Rain = 0
KWOS 260800Z 12005KT 17/16 A2996 RMK A01 T01740160  RH  096%=      5-min Rain = 0
KWOS 260805Z 10006KT 17/16 A2996 RMK A01 T01740162  RH  097%=      5-min Rain = 0
KWOS 260810Z 10006KT 17/16 A2996 RMK A01 T01730161  RH  097%=      5-min Rain = 0
KWOS 260815Z 11005KT 17/16 A2996 RMK A01 T01730162  RH  098%=      5-min Rain = 0
KWOS 260820Z 12005KT 17/16 A2996 RMK A01 T01720161  RH  098%=      5-min Rain = 0
KWOS 260825Z 12005KT 17/16 A2996 RMK A01 T01720161  RH  098%=      5-min Rain = 0
KWOS 260830Z 12005KT 17/16 A2996 RMK A01 T01700160  RH  098%=      5-min Rain = 0
KWOS 260835Z 12005KT 17/16 A2996 RMK A01 T01700159  RH  098%=      5-min Rain = 0
KWOS 260840Z 12006KT 17/16 A2996 RMK A01 T01710161  RH  099%=      5-min Rain = 0
KWOS 260845Z 12006KT 18/17 A2996 RMK A01 T01750165  RH  099%=      5-min Rain = 0
KWOS 260850Z 13006KT 18/17 A2996 RMK A01 T01760165  RH  098%=      5-min Rain = 0
KWOS 260855Z 13006KT 18/17 A2996 RMK A01 T01790167  RH  097%=      5-min Rain = 0
KWOS 260900Z 13006KT 18/17 A2996 RMK A01 T01800167  RH  097%=      5-min Rain = 0
KWOS 260905Z 13007KT 18/17 A2996 RMK A01 T01800166  RH  096%=      5-min Rain = 0
KWOS 260910Z 13006KT 18/17 A2996 RMK A01 T01800165  RH  096%=      5-min Rain = 0
KWOS 260915Z 13006KT 18/17 A2996 RMK A01 T01790166  RH  096%=      5-min Rain = 0
KWOS 260920Z 12006KT 18/17 A2996 RMK A01 T01800166  RH  096%=      5-min Rain = 0
KWOS 260925Z 12006KT 18/17 A2997 RMK A01 T01790165  RH  096%=      5-min Rain = 0
KWOS 260930Z 11007KT 18/17 A2997 RMK A01 T01780165  RH  096%=      5-min Rain = 0
KWOS 260935Z 12007KT 18/17 A2997 RMK A01 T01780166  RH  097%=      5-min Rain = 0
KWOS 260940Z 12008KT 18/17 A2997 RMK A01 T01810169  RH  097%=      5-min Rain = 0
KWOS 260945Z 12008KT 18/17 A2996 RMK A01 T01830170  RH  097%=      5-min Rain = 0
KWOS 260950Z 13009KT 19/17 A2996 RMK A01 T01860172  RH  096%=      5-min Rain = 0
KWOS 260955Z 13009KT 19/17 A2996 RMK A01 T01890173  RH  096%=      5-min Rain = 0
KWOS 261000Z 13008KT 19/17 A2997 RMK A01 T01900174  RH  095%=      5-min Rain = 0
KWOS 261005Z 13007KT 19/17 A2997 RMK A01 T01900174  RH  095%=      5-min Rain = 0
KWOS 261010Z 13007KT 19/17 A2997 RMK A01 T01900174  RH  095%=      5-min Rain = 0
KWOS 261015Z 13006KT 19/18 A2997 RMK A01 T01900175  RH  096%=      5-min Rain = 0
KWOS 261020Z 14007KT 19/18 A2997 RMK A01 T01900175  RH  096%=      5-min Rain = 0
KWOS 261025Z 14007KT 19/18 A2997 RMK A01 T01910176  RH  096%=      5-min Rain = 0
KWOS 261030Z 14008KT 19/18 A2997 RMK A01 T01910176  RH  096%=      5-min Rain = 0
KWOS 261035Z 14009G14KT 19/18 A2997 RMK A01 T01930177  RH  095%=      5-min Rain = 0
KWOS 261040Z 14009KT 19/18 A2997 RMK A01 T01940178  RH  095%=      5-min Rain = 0
KWOS 261045Z 14009KT 19/18 A2997 RMK A01 T01940178  RH  095%=      5-min Rain = 0
KWOS 261050Z 14010KT 19/18 A2997 RMK A01 T01940179  RH  096%=      5-min Rain = 0
KWOS 261055Z 15010KT 20/18 A2998 RMK A01 T01950179  RH  096%=      5-min Rain = 0
KWOS 261100Z 15011KT 20/18 A2998 RMK A01 T01960180  RH  095%=      5-min Rain = 0
KWOS 261105Z 15010KT 20/18 A2998 RMK A01 T01970180  RH  095%=      5-min Rain = 0
KWOS 261110Z 16010KT 20/18 A2998 RMK A01 T01970180  RH  095%=      5-min Rain = 0
KWOS 261115Z 16010KT 20/18 A2998 RMK A01 T01980181  RH  095%=      5-min Rain = 0
KWOS 261120Z 16011G16KT 20/18 A2998 RMK A01 T01990182  RH  095%=      5-min Rain = 0
KWOS 261125Z 16010KT 20/18 A2998 RMK A01 T01990182  RH  095%=      5-min Rain = 0
KWOS 261130Z 16011KT 20/18 A2998 RMK A01 T01990182  RH  095%=      5-min Rain = 0
KWOS 261135Z 16011KT 20/18 A2998 RMK A01 T02000182  RH  094%=      5-min Rain = 0
KWOS 261140Z 16010KT 20/18 A2998 RMK A01 T02000182  RH  094%=      5-min Rain = 0
KWOS 261145Z 16010KT 20/18 A2998 RMK A01 T02000182  RH  094%=      5-min Rain = 0
KWOS 261150Z 16010KT 20/18 A2998 RMK A01 T02000182  RH  094%=      5-min Rain = 0
KWOS 261155Z 15011KT 20/18 A2998 RMK A01 T02000182  RH  094%=      5-min Rain = 0
KWOS 261200Z 15011KT 20/18 A2998 RMK A01 T02000182  RH  094%=      5-min Rain = 0
KWOS 261205Z 15011KT 20/18 A2999 RMK A01 T01990182  RH  094%=      5-min Rain = 0
KWOS 261210Z 15011KT 20/18 A2999 RMK A01 T01990182  RH  095%=      5-min Rain = 0
KWOS 261215Z 15011KT 20/18 A2999 RMK A01 T01990182  RH  094%=      5-min Rain = 0
KWOS 261220Z 15011KT 20/18 A2999 RMK A01 T01990182  RH  094%=      5-min Rain = 0
KWOS 261225Z 15012KT 20/18 A2999 RMK A01 T02000182  RH  094%=      5-min Rain = 0
KWOS 261230Z 15012KT 20/18 A2999 RMK A01 T02000182  RH  094%=      5-min Rain = 0
KWOS 261235Z 15012KT 20/18 A2999 RMK A01 T02010182  RH  094%=      5-min Rain = 0
KWOS 261240Z 15012KT 20/18 A2999 RMK A01 T02010182  RH  094%=      5-min Rain = 0
KWOS 261245Z 15012G17KT 20/18 A2999 RMK A01 T02010182  RH  094%=      5-min Rain = 0
KWOS 261250Z 15012G18KT 20/18 A2999 RMK A01 T02020183  RH  094%=      5-min Rain = 0
KWOS 261255Z 15012G20KT 20/18 A2999 RMK A01 T02020183  RH  093%=      5-min Rain = 0
KWOS 261300Z 15012KT 20/18 A2999 RMK A01 T02030183  RH  093%=      5-min Rain = 0
KWOS 261305Z 15013KT 20/18 A2999 RMK A01 T02030183  RH  093%=      5-min Rain = 0
KWOS 261310Z 15013G18KT 20/18 A2999 RMK A01 T02030183  RH  093%=      5-min Rain = 0
KWOS 261315Z 15013G20KT 20/18 A2999 RMK A01 T02030183  RH  093%=      5-min Rain = 0
KWOS 261320Z 15014KT 20/18 A2999 RMK A01 T02040183  RH  093%=      5-min Rain = 0
KWOS 261325Z 15013KT 20/18 A2999 RMK A01 T02040183  RH  092%=      5-min Rain = 0
KWOS 261330Z 16012KT 21/18 A2999 RMK A01 T02050183  RH  092%=      5-min Rain = 0
KWOS 261335Z 15011G16KT 21/18 A2999 RMK A01 T02050183  RH  092%=      5-min Rain = 0
KWOS 261340Z 15013G20KT 21/18 A2999 RMK A01 T02050182  RH  091%=      5-min Rain = 0
KWOS 261345Z 16013G19KT 21/18 A2999 RMK A01 T02060182  RH  091%=      5-min Rain = 0
KWOS 261350Z 16013KT 21/18 A30 RMK A01 T02060182  RH  091%=      5-min Rain = 0
KWOS 261355Z 16013KT 21/18 A30 RMK A01 T02070183  RH  091%=      5-min Rain = 0
KWOS 261400Z 16013KT 21/18 A30 RMK A01 T02070182  RH  090%=      5-min Rain = 0
KWOS 261405Z 17012KT 21/18 A3001 RMK A01 T02080182  RH  090%=      5-min Rain = 0
KWOS 261410Z 16013G20KT 21/18 A3001 RMK A01 T02080182  RH  090%=      5-min Rain = 0
KWOS 261415Z 17013G19KT 21/18 A3001 RMK A01 T02090183  RH  090%=      5-min Rain = 0
KWOS 261420Z 17014G20KT 21/18 A3002 RMK A01 T02080182  RH  090%=      5-min Rain = 0
KWOS 261425Z 16013G19KT 21/18 A3002 RMK A01 T02080182  RH  090%=      5-min Rain = 0
KWOS 261430Z 16013KT 21/18 A3002 RMK A01 T02080182  RH  090%=      5-min Rain = 0
KWOS 261435Z 17013KT 21/18 A3002 RMK A01 T02080183  RH  090%=      5-min Rain = 0
KWOS 261440Z 17013KT 21/18 A3002 RMK A01 T02090183  RH  090%=      5-min Rain = 0
KWOS 261445Z 17013KT 21/18 A3002 RMK A01 T02090182  RH  089%=      5-min Rain = 0
KWOS 261450Z 17013G19KT 21/18 A3002 RMK A01 T02100182  RH  089%=      5-min Rain = 0
KWOS 261455Z 17014G19KT 21/18 A3001 RMK A01 T02100182  RH  088%=      5-min Rain = 0
KWOS 261500Z 17014KT 21/18 A3001 RMK A01 T02110182  RH  088%=      5-min Rain = 0
KWOS 261505Z 17014KT 21/18 A3001 RMK A01 T02110182  RH  088%=      5-min Rain = 0
KWOS 261510Z 17014KT 21/18 A3001 RMK A01 T02110182  RH  088%=      5-min Rain = 0
KWOS 261515Z 17014G20KT 21/18 A3001 RMK A01 T02110182  RH  088%=      5-min Rain = 0
KWOS 261520Z 17016G22KT 21/18 A3001 RMK A01 T02110181  RH  088%=      5-min Rain = 0
KWOS 261525Z 17013G19KT 21/18 A3001 RMK A01 T02120182  RH  088%=      5-min Rain = 0
KWOS 261530Z 17013G19KT 21/18 A3001 RMK A01 T02120182  RH  088%=      5-min Rain = 0
KWOS 261535Z 17014KT 21/18 A3001 RMK A01 T02130182  RH  087%=      5-min Rain = 0
KWOS 261540Z 17013KT 21/18 A3001 RMK A01 T02130182  RH  087%=      5-min Rain = 0
KWOS 261545Z 16012G17KT 21/18 A3001 RMK A01 T02140183  RH  087%=      5-min Rain = 0
KWOS 261550Z 16014G19KT 21/18 A30 RMK A01 T02140183  RH  087%=      5-min Rain = 0
KWOS 261555Z 17012G18KT 22/18 A30 RMK A01 T02160184  RH  086%=      5-min Rain = 0
KWOS 261600Z 16013G18KT 22/18 A30 RMK A01 T02180184  RH  086%=      5-min Rain = 0
KWOS 261605Z 17014KT 22/18 A30 RMK A01 T02180183  RH  085%=      5-min Rain = 0
KWOS 261610Z 16016G21KT 22/18 A30 RMK A01 T02190182  RH  084%=      5-min Rain = 0
KWOS 261615Z 16015KT 22/18 A30 RMK A01 T02200183  RH  084%=      5-min Rain = 0
KWOS 261620Z 17013G19KT 22/18 A3001 RMK A01 T02210184  RH  084%=      5-min Rain = 0
KWOS 261625Z 17013KT 22/18 A3001 RMK A01 T02220184  RH  084%=      5-min Rain = 0
KWOS 261630Z 16014G19KT 22/18 A3001 RMK A01 T02210184  RH  084%=      5-min Rain = 0
KWOS 261635Z 16015G21KT 22/18 A3001 RMK A01 T02210182  RH  083%=      5-min Rain = 0
KWOS 261640Z 16014G19KT 22/18 A3001 RMK A01 T02220182  RH  083%=      5-min Rain = 0
KWOS 261645Z 16012KT 22/18 A3001 RMK A01 T02220183  RH  083%=      5-min Rain = 0
KWOS 261650Z 16012G18KT 22/19 A3001 RMK A01 T02230185  RH  083%=      5-min Rain = 0
KWOS 261655Z 16012G17KT 22/18 A3001 RMK A01 T02240183  RH  082%=      5-min Rain = 0
KWOS 261700Z 16012G18KT 22/18 A3001 RMK A01 T02240184  RH  082%=      5-min Rain = 0
KWOS 261705Z 16013G18KT 23/18 A30 RMK A01 T02270183  RH  081%=      5-min Rain = 0
KWOS 261710Z 16013G18KT 23/18 A30 RMK A01 T02270183  RH  080%=      5-min Rain = 0
KWOS 261715Z 16013KT 23/18 A3001 RMK A01 T02270183  RH  080%=      5-min Rain = 0
KWOS 261720Z 16014G19KT 23/18 A3001 RMK A01 T02270182  RH  080%=      5-min Rain = 0
KWOS 261725Z 16014G20KT 23/18 A3001 RMK A01 T02260181  RH  080%=      5-min Rain = 0
KWOS 261730Z 16015KT 23/18 A30 RMK A01 T02260180  RH  080%=      5-min Rain = 0
KWOS 261735Z 16013KT 23/18 A30 RMK A01 T02260181  RH  080%=      5-min Rain = 0
KWOS 261740Z 15013G18KT 23/18 A30 RMK A01 T02270182  RH  080%=      5-min Rain = 0
KWOS 261745Z 16015G21KT 23/18 A30 RMK A01 T02280182  RH  079%=      5-min Rain = 0
KWOS 261750Z 16015G20KT 23/18 A30 RMK A01 T02270180  RH  079%=      5-min Rain = 0
KWOS 261755Z 16015G21KT 23/18 A30 RMK A01 T02280180  RH  079%=      5-min Rain = 0
KWOS 261800Z 16013G19KT 23/18 A30 RMK A01 T02290182  RH  079%=      5-min Rain = 0
KWOS 261805Z 16014G19KT 23/18 A30 RMK A01 T02300182  RH  078%=      5-min Rain = 0
KWOS 261810Z 16014G19KT 23/18 A30 RMK A01 T02300180  RH  078%=      5-min Rain = 0
KWOS 261815Z 16015G20KT 23/18 A3001 RMK A01 T02290181  RH  078%=      5-min Rain = 0
KWOS 261820Z 16016G21KT 23/18 A3001 RMK A01 T02280180  RH  078%=      5-min Rain = 0
KWOS 261825Z 16015KT 23/18 A3001 RMK A01 T02280180  RH  078%=      5-min Rain = 0
KWOS 261830Z 16014G19KT 23/18 A3001 RMK A01 T02290181  RH  078%=      5-min Rain = 0
KWOS 261835Z 16014KT 23/18 A3001 RMK A01 T02300182  RH  078%=      5-min Rain = 0
KWOS 261840Z 16014KT 23/18 A3001 RMK A01 T02300182  RH  079%=      5-min Rain = 0
KWOS 261845Z 16013KT 23/18 A3002 RMK A01 T02290183  RH  080%=      5-min Rain = 0
KWOS 261850Z 16013G18KT 23/18 A3002 RMK A01 T02290184  RH  080%=      5-min Rain = 0
KWOS 261855Z 17013KT 23/18 A3002 RMK A01 T02280183  RH  080%=      5-min Rain = 0
KWOS 261900Z 17012G17KT 23/18 A3001 RMK A01 T02290184  RH  080%=      5-min Rain = 0
KWOS 261905Z 16012KT 23/18 A3002 RMK A01 T02280184  RH  080%=      5-min Rain = 0
KWOS 261910Z 17012G17KT 23/19 A3002 RMK A01 T02280185  RH  081%=      5-min Rain = 0
KWOS 261915Z 16014G19KT 23/18 A3002 RMK A01 T02270183  RH  080%=      5-min Rain = 0
KWOS 261920Z 16012KT 23/19 A3001 RMK A01 T02280185  RH  081%=      5-min Rain = 0
KWOS 261925Z 16013KT 23/19 A3001 RMK A01 T02290186  RH  081%=      5-min Rain = 0
KWOS 261930Z 16013G18KT 23/19 A3001 RMK A01 T02300186  RH  081%=      5-min Rain = 0
KWOS 261935Z 16013KT 23/19 A3001 RMK A01 T02300185  RH  080%=      5-min Rain = 0
KWOS 261940Z 16013KT 23/19 A3001 RMK A01 T02300186  RH  081%=      5-min Rain = 0
KWOS 261945Z 17013KT 23/19 A30 RMK A01 T02300185  RH  080%=      5-min Rain = 0
KWOS 261950Z 16012KT 23/19 A30 RMK A01 T02310186  RH  080%=      5-min Rain = 0
KWOS 261955Z 16013KT 23/19 A30 RMK A01 T02320188  RH  080%=      5-min Rain = 0
KWOS 262000Z 15012G17KT 23/19 A30 RMK A01 T02330188  RH  080%=      5-min Rain = 0
KWOS 262005Z 15012G18KT 24/19 A2999 RMK A01 T02350188  RH  079%=      5-min Rain = 0
KWOS 262010Z 14014KT 23/19 A2998 RMK A01 T02340188  RH  080%=      5-min Rain = 0
KWOS 262015Z 14013KT 23/19 A2998 RMK A01 T02330188  RH  080%=      5-min Rain = 0
KWOS 262020Z 14013G18KT 23/19 A2998 RMK A01 T02330188  RH  080%=      5-min Rain = 0
KWOS 262025Z 15014G19KT 23/19 A2998 RMK A01 T02320187  RH  080%=      5-min Rain = 0
KWOS 262030Z 15014KT 23/19 A2998 RMK A01 T02320187  RH  080%=      5-min Rain = 0
KWOS 262035Z 16014KT 23/19 A2998 RMK A01 T02330187  RH  080%=      5-min Rain = 0
KWOS 262040Z 15013G18KT 23/19 A2998 RMK A01 T02330188  RH  080%=      5-min Rain = 0
KWOS 262045Z 15014G19KT 23/19 A2997 RMK A01 T02340189  RH  080%=      5-min Rain = 0
KWOS 262050Z 14014KT 24/19 A2996 RMK A01 T02350188  RH  079%=      5-min Rain = 0
KWOS 262055Z 15015KT 24/19 A2996 RMK A01 T02350188  RH  079%=      5-min Rain = 0
KWOS 262100Z 14014G19KT 24/19 A2995 RMK A01 T02350188  RH  079%=      5-min Rain = 0
KWOS 262105Z 14014G19KT 24/19 A2995 RMK A01 T02350188  RH  079%=      5-min Rain = 0
KWOS 262110Z 14016KT 24/19 A2995 RMK A01 T02350187  RH  079%=      5-min Rain = 0
KWOS 262115Z 14016G21KT 24/19 A2994 RMK A01 T02350186  RH  078%=      5-min Rain = 0
KWOS 262120Z 15015G20KT 24/19 A2995 RMK A01 T02350185  RH  078%=      5-min Rain = 0
KWOS 262125Z 15015G20KT 24/18 A2995 RMK A01 T02360183  RH  076%=      5-min Rain = 0
KWOS 262130Z 16013G18KT 24/19 A2995 RMK A01 T02360185  RH  077%=      5-min Rain = 0
KWOS 262135Z 15014G19KT 24/19 A2995 RMK A01 T02360185  RH  077%=      5-min Rain = 0
KWOS 262140Z 15015G20KT 24/19 A2994 RMK A01 T02360187  RH  078%=      5-min Rain = 0
KWOS 262145Z 14015G21KT 24/19 A2994 RMK A01 T02350186  RH  078%=      5-min Rain = 0
KWOS 262150Z 14019G24KT 24/19 A2993 RMK A01 T02350185  RH  078%=      5-min Rain = 0
KWOS 262155Z 15016G21KT 24/19 A2993 RMK A01 T02360185  RH  077%=      5-min Rain = 0
KWOS 262200Z 16016G23KT 24/18 A2994 RMK A01 T02380184  RH  076%=      5-min Rain = 0
KWOS 262205Z 15016G21KT 24/18 A2994 RMK A01 T02390184  RH  075%=      5-min Rain = 0
KWOS 262210Z 15015G21KT 24/19 A2993 RMK A01 T02390185  RH  076%=      5-min Rain = 0
KWOS 262215Z 14017G26KT 24/19 A2992 RMK A01 T02380187  RH  077%=      5-min Rain = 0
KWOS 262220Z 14021G28KT 24/19 A2991 RMK A01 T02360187  RH  078%=      5-min Rain = 0
KWOS 262225Z 14023G29KT 24/19 A299 RMK A01 T02370186  RH  077%=      5-min Rain = 0
KWOS 262230Z 14022G30KT 24/19 A2989 RMK A01 T02370187  RH  077%=      5-min Rain = 0
KWOS 262235Z 13021G29KT 24/19 A2988 RMK A01 T02380187  RH  077%=      5-min Rain = 0
KWOS 262240Z 13021G30KT 24/19 A2988 RMK A01 T02390186  RH  076%=      5-min Rain = 0
KWOS 262245Z 13018G23KT 24/19 A2988 RMK A01 T02400188  RH  077%=      5-min Rain = 0
KWOS 262250Z 14017G23KT 24/19 A2989 RMK A01 T02400187  RH  076%=      5-min Rain = 0
KWOS 262255Z 15017G25KT 24/19 A299 RMK A01 T02410187  RH  076%=      5-min Rain = 0
KWOS 262300Z 15018G26KT 24/19 A299 RMK A01 T02410187  RH  076%=      5-min Rain = 0
KWOS 262305Z 15016G23KT 24/19 A299 RMK A01 T02430188  RH  075%=      5-min Rain = 0
KWOS 262310Z 15017G23KT 24/19 A2991 RMK A01 T02430186  RH  074%=      5-min Rain = 0
KWOS 262315Z 16014G20KT 24/19 A2992 RMK A01 T02440187  RH  074%=      5-min Rain = 0
KWOS 262320Z 16013KT 25/19 A2991 RMK A01 T02450187  RH  074%=      5-min Rain = 0
KWOS 262325Z 15014G22KT 25/19 A2991 RMK A01 T02470187  RH  073%=      5-min Rain = 0
KWOS 262330Z 15018G23KT 25/19 A2991 RMK A01 T02500187  RH  072%=      5-min Rain = 0
KWOS 262335Z 16014G19KT 25/19 A2991 RMK A01 T02490189  RH  073%=      5-min Rain = 0
KWOS 262340Z 16018G24KT 25/19 A299 RMK A01 T02490186  RH  072%=      5-min Rain = 0
KWOS 262345Z 16019G26KT 25/19 A299 RMK A01 T02470185  RH  072%=      5-min Rain = 0
KWOS 262350Z 16017G23KT 25/19 A299 RMK A01 T02480185  RH  072%=      5-min Rain = 0
KWOS 262355Z 15016G24KT 25/19 A299 RMK A01 T02520189  RH  072%=      5-min Rain = 0
KWOS 270000Z 15020G27KT 25/19 A299 RMK A01 T02520185  RH  070%=      5-min Rain = 0
KWOS 270005Z 15019G26KT 25/18 A2989 RMK A01 T02480184  RH  071%=      5-min Rain = 0
KWOS 270010Z 15020G25KT 25/18 A2989 RMK A01 T02480183  RH  071%=      5-min Rain = 0
KWOS 270015Z 15020G28KT 25/18 A2989 RMK A01 T02460182  RH  071%=      5-min Rain = 0
KWOS 270020Z 15019G25KT 25/18 A2989 RMK A01 T02460182  RH  071%=      5-min Rain = 0
KWOS 270025Z 15020G26KT 25/18 A2989 RMK A01 T02470181  RH  071%=      5-min Rain = 0
KWOS 270030Z 15018KT 25/18 A2988 RMK A01 T02460183  RH  072%=      5-min Rain = 0
KWOS 270035Z 15019G25KT 24/18 A2988 RMK A01 T02430183  RH  073%=      5-min Rain = 0
KWOS 270040Z 15019G27KT 24/18 A2987 RMK A01 T02410181  RH  073%=      5-min Rain = 0
KWOS 270045Z 15019G25KT 24/18 A2987 RMK A01 T02410181  RH  073%=      5-min Rain = 0
KWOS 270050Z 15019G26KT 24/18 A2987 RMK A01 T02400181  RH  073%=      5-min Rain = 0
KWOS 270055Z 15021G29KT 24/18 A2986 RMK A01 T02390181  RH  073%=      5-min Rain = 0
KWOS 270100Z 15020G28KT 24/18 A2986 RMK A01 T02400180  RH  073%=      5-min Rain = 0
KWOS 270105Z 15018G25KT 24/18 A2986 RMK A01 T02380179  RH  074%=      5-min Rain = 0
KWOS 270110Z 15019G27KT 24/18 A2986 RMK A01 T02370178  RH  073%=      5-min Rain = 0
KWOS 270115Z 15019G26KT 24/18 A2986 RMK A01 T02360178  RH  074%=      5-min Rain = 0
KWOS 270120Z 15017G23KT 24/18 A2986 RMK A01 T02350178  RH  074%=      5-min Rain = 0
KWOS 270125Z 16019G26KT 23/18 A2986 RMK A01 T02340177  RH  074%=      5-min Rain = 0
KWOS 270130Z 15018G25KT 23/18 A2987 RMK A01 T02330177  RH  074%=      5-min Rain = 0
KWOS 270135Z 15016G25KT 23/18 A2987 RMK A01 T02320177  RH  075%=      5-min Rain = 0
KWOS 270140Z 15015G22KT 23/18 A2987 RMK A01 T02310177  RH  075%=      5-min Rain = 0
KWOS 270145Z 15016G23KT 23/18 A2987 RMK A01 T02300177  RH  076%=      5-min Rain = 0
KWOS 270150Z 15016G23KT 23/18 A2987 RMK A01 T02290177  RH  076%=      5-min Rain = 0
KWOS 270155Z 15015G23KT 23/18 A2987 RMK A01 T02290176  RH  076%=      5-min Rain = 0
KWOS 270200Z 15015KT 23/18 A2987 RMK A01 T02280177  RH  077%=      5-min Rain = 0
KWOS 270205Z 16014G20KT 23/18 A2988 RMK A01 T02270177  RH  077%=      5-min Rain = 0
KWOS 270210Z 15015G20KT 23/18 A2988 RMK A01 T02260176  RH  077%=      5-min Rain = 0
KWOS 270215Z 15016G21KT 23/18 A2988 RMK A01 T02270176  RH  077%=      5-min Rain = 0
KWOS 270220Z 15014G19KT 23/18 A2988 RMK A01 T02260176  RH  077%=      5-min Rain = 0
KWOS 270225Z 15014G20KT 23/18 A2988 RMK A01 T02250176  RH  078%=      5-min Rain = 0
KWOS 270230Z 15015KT 23/18 A2989 RMK A01 T02250175  RH  077%=      5-min Rain = 0
KWOS 270235Z 15015KT 23/18 A2989 RMK A01 T02250176  RH  078%=      5-min Rain = 0
KWOS 270240Z 15014KT 22/18 A2989 RMK A01 T02230175  RH  078%=      5-min Rain = 0
KWOS 270245Z 15012G17KT 22/18 A2989 RMK A01 T02220175  RH  079%=      5-min Rain = 0
KWOS 270250Z 15013G19KT 22/18 A2989 RMK A01 T02220175  RH  079%=      5-min Rain = 0
KWOS 270255Z 15013G18KT 22/18 A299 RMK A01 T02230175  RH  078%=      5-min Rain = 0
KWOS 270300Z 15014G19KT 22/18 A299 RMK A01 T02220175  RH  078%=      5-min Rain = 0
KWOS 270305Z 15015G21KT 22/17 A2989 RMK A01 T02220174  RH  078%=      5-min Rain = 0
KWOS 270310Z 15014G20KT 22/17 A2989 RMK A01 T02220173  RH  078%=      5-min Rain = 0
KWOS 270315Z 16013G18KT 22/17 A2989 RMK A01 T02220173  RH  078%=      5-min Rain = 0
KWOS 270320Z 16014G20KT 22/17 A2989 RMK A01 T02210173  RH  078%=      5-min Rain = 0
KWOS 270325Z 16013G20KT 22/17 A2989 RMK A01 T02200173  RH  078%=      5-min Rain = 0
KWOS 270330Z 16012G17KT 22/17 A299 RMK A01 T02180172  RH  079%=      5-min Rain = 0
KWOS 270335Z 16012G17KT 22/17 A2989 RMK A01 T02180172  RH  079%=      5-min Rain = 0
KWOS 270340Z 16012G20KT 22/17 A2989 RMK A01 T02170172  RH  079%=      5-min Rain = 0
KWOS 270345Z 16012KT 22/17 A2989 RMK A01 T02170172  RH  080%=      5-min Rain = 0
KWOS 270350Z 15013G18KT 22/17 A2989 RMK A01 T02160172  RH  080%=      5-min Rain = 0
KWOS 270355Z 16012G17KT 22/17 A2989 RMK A01 T02150172  RH  080%=      5-min Rain = 0
KWOS 270400Z 16012KT 21/17 A2989 RMK A01 T02140172  RH  081%=      5-min Rain = 0
KWOS 270405Z 16012G17KT 21/17 A2989 RMK A01 T02130172  RH  081%=      5-min Rain = 0
KWOS 270410Z 16012KT 21/17 A2989 RMK A01 T02130172  RH  081%=      5-min Rain = 0
KWOS 270415Z 16011KT 21/17 A2989 RMK A01 T02120172  RH  082%=      5-min Rain = 0
KWOS 270420Z 16011KT 21/17 A2989 RMK A01 T02100172  RH  083%=      5-min Rain = 0
KWOS 270425Z 16011KT 21/17 A2989 RMK A01 T02100172  RH  083%=      5-min Rain = 0
KWOS 270430Z 16011KT 21/17 A2989 RMK A01 T02090171  RH  083%=      5-min Rain = 0
KWOS 270435Z 16011KT 21/17 A2989 RMK A01 T02080171  RH  084%=      5-min Rain = 0
KWOS 270440Z 16010KT 21/17 A299 RMK A01 T02080171  RH  084%=      5-min Rain = 0
KWOS 270445Z 17010KT 21/17 A299 RMK A01 T02060171  RH  085%=      5-min Rain = 0
KWOS 270450Z 16010KT 20/17 A2989 RMK A01 T02040171  RH  085%=      5-min Rain = 0
KWOS 270455Z 16011KT 20/17 A2989 RMK A01 T02040171  RH  085%=      5-min Rain = 0

Page generated in 0.0091 seconds.